East Millinocket, ME

12:51 PM EDT on April 28, 2015 (GMT -0400)
Millinocket Municipal | | Change Station
CLOSE
Current Station
Airport
Location: Millinocket,
Elevation: 407 ft
Nearby Weather Stations
Active Advisory: Flood Warning Active Notice: Public Information Statement

Elev 407 ft 45.65 °N, 68.69 °W | Updated 58 minutes ago

Overcast
Overcast
49 °F
Feels Like 49 °F
N
22
Wind Variable Wind from NNW
Gusts 29 mph

Today
High -- | Low -- °F
--% Chance of Precip.
Yesterday
High -- | Low -- °F
Precip. -- in
5:27 AM 7:37 PM
Waxing Gibbous, 75% visible
Pressure 29.71 in
Visibility 10.0 miles
Clouds Mostly Cloudy 3500 ft
Overcast 4400 ft
Dew Point 34 °F
Humidity 56%
Rainfall 0.00 in
Snow Depth Not available.
UV 3 out of 12
Pollen 8.20 out of 12
Air Quality Not available.
Flu Activity Regional
METAR KMLT 281553Z AUTO 34019G25KT 10SM BKN035 OVC044 09/01 A2969 RMK AO2 RAE1454 SLP061 P0000 T00940011

More Conditions Fewer Conditions

Pressure 29.71 in
Visibility 10.0 miles
Clouds Mostly Cloudy 3500 ft
Overcast 4400 ft
Dew Point 34 °F
Humidity 56%
Rainfall 0.00 in
Snow Depth Not available.
UV 3 out of 12
Pollen 8.20 out of 12
Air Quality Not available.
Flu Activity Regional
METAR KMLT 281553Z AUTO 34019G25KT 10SM BKN035 OVC044 09/01 A2969 RMK AO2 RAE1454 SLP061 P0000 T00940011

More Conditions Fewer Conditions

10-Day Weather Forecast

Almanac

Astronomy

Apr. 28, 2015 Rise Set
Actual Time
Civil Twilight
Nautical Twilight
Astronomical Twilight
Moon
Length of Visible Light
Length of Day
Tomorrow will be .
, % of the Moon is Illuminated

Today's Extremes

State Highs State Lows

Community

WunderPhotos

Upload Photos

1,817,699 photos uploaded!

WunderBlogs® & News

Nearby

Air Quality

  Air Quality AQ Index Pollutant
Not available.

Snow Depth

Station Depth Elevation

Earthquake Activity

City Distance Mag. Time & Date
Minimum magnitude displayed is 2.5.

Coastal Water Temperatures

Place Temperature

Stations

Nearby Weather Stations

Station Location Temp. Windchill Dew Point Humidity Wind Precip. Elev Updated Type
                   
Flood Warning
Statement as of 5:53 AM EDT on April 28, 2015

The Flood Warning continues for
the Mattawamkeag River above Mattawamkeag
* until this evening... or until the warning is cancelled.
* At 5:45 am this morning the stage was 13.6 feet.
* Minor flooding is still possible.
* Flood stage is 13.5 feet.
* Forecast... the river will fall below flood stage by this afternoon.


Lat... Lon 4557 6838 4560 6819 4572 6808 4566 6794
      4551 6810 4546 6835